createdAt,value
2022-12-11T00:02:27.340Z,19.10
2022-12-11T00:05:29.637Z,19.02
2022-12-11T00:08:31.944Z,17.58
2022-12-11T00:11:34.339Z,18.17
2022-12-11T00:14:36.725Z,16.30
2022-12-11T00:17:38.998Z,17.33
2022-12-11T00:20:41.686Z,23.45
2022-12-11T00:23:44.440Z,17.60
2022-12-11T00:26:46.735Z,22.47
2022-12-11T00:29:50.370Z,16.55
2022-12-11T00:32:52.953Z,20.38
2022-12-11T00:35:55.273Z,21.27
2022-12-11T00:38:58.001Z,19.80
2022-12-11T00:42:00.369Z,18.50
2022-12-11T00:45:03.115Z,22.48
2022-12-11T00:48:05.833Z,20.85
2022-12-11T00:51:08.304Z,26.35
2022-12-11T00:54:10.644Z,22.10
2022-12-11T00:57:13.034Z,27.38
2022-12-11T01:00:15.641Z,28.70
2022-12-11T01:06:23.898Z,21.50
2022-12-11T01:09:45.092Z,19.63
2022-12-11T01:12:47.452Z,26.63
2022-12-11T01:15:49.779Z,28.23
2022-12-11T01:18:52.137Z,30.48
2022-12-11T01:21:54.745Z,28.05
2022-12-11T01:24:57.004Z,26.88
2022-12-11T01:27:59.810Z,29.98
2022-12-11T01:31:02.244Z,30.17
2022-12-11T01:34:04.691Z,26.83
2022-12-11T01:37:07.130Z,22.88
2022-12-11T01:40:10.680Z,25.08
2022-12-11T01:43:12.986Z,20.67
2022-12-11T01:46:15.481Z,22.17
2022-12-11T01:49:19.726Z,27.05
2022-12-11T01:52:22.646Z,24.52
2022-12-11T01:55:24.999Z,19.77
2022-12-11T01:58:30.608Z,28.13
2022-12-11T02:01:40.800Z,24.13
2022-12-11T02:04:44.905Z,21.92
2022-12-11T02:07:50.860Z,22.27
2022-12-11T02:10:59.365Z,18.13
2022-12-11T02:14:34.564Z,22.55
2022-12-11T02:17:42.994Z,22.75
2022-12-11T02:21:00.179Z,24.08
2022-12-11T02:24:14.502Z,18.85
2022-12-11T02:27:48.097Z,22.10
2022-12-11T02:31:04.746Z,19.30
2022-12-11T02:34:14.281Z,21.02
2022-12-11T02:37:24.611Z,20.33
2022-12-11T02:40:29.609Z,19.27
2022-12-11T02:43:33.190Z,17.55
2022-12-11T02:46:36.917Z,13.93
2022-12-11T02:49:41.198Z,15.82
2022-12-11T02:52:43.966Z,13.80
2022-12-11T02:55:46.845Z,12.83
2022-12-11T02:58:56.895Z,15.15
2022-12-11T03:02:01.378Z,15.73
2022-12-11T03:05:05.645Z,15.10
2022-12-11T03:08:08.344Z,16.63
2022-12-11T03:11:12.356Z,12.90
2022-12-11T03:14:14.910Z,15.07
2022-12-11T03:17:26.868Z,14.77
2022-12-11T03:20:42.385Z,16.85
2022-12-11T03:23:53.880Z,15.57
2022-12-11T03:27:11.340Z,16.38
2022-12-11T03:30:17.484Z,11.30
2022-12-11T03:33:33.963Z,14.95
2022-12-11T03:36:38.234Z,12.98
2022-12-11T03:39:45.169Z,12.02
2022-12-11T03:42:50.902Z,14.20
2022-12-11T03:45:54.480Z,14.07
2022-12-11T03:52:04.401Z,12.60
2022-12-11T03:55:07.824Z,14.50
2022-12-11T04:01:12.686Z,18.25
2022-12-11T04:04:14.998Z,15.90
2022-12-11T04:07:17.674Z,14.65
2022-12-11T04:10:19.975Z,16.52
2022-12-11T04:13:22.316Z,16.80
2022-12-11T04:16:24.728Z,18.63
2022-12-11T04:19:45.945Z,15.10
2022-12-11T04:23:07.080Z,17.65
2022-12-11T04:26:16.551Z,15.85
2022-12-11T04:29:18.899Z,14.55
2022-12-11T04:32:21.217Z,17.17
2022-12-11T04:35:23.677Z,13.13
2022-12-11T04:38:26.339Z,13.38
2022-12-11T04:41:29.117Z,14.13
2022-12-11T04:44:31.723Z,16.87
2022-12-11T04:47:38.679Z,15.37
2022-12-11T04:50:41.103Z,14.25
2022-12-11T04:53:43.776Z,15.23
2022-12-11T04:56:46.014Z,12.00
2022-12-11T04:59:48.851Z,21.52
2022-12-11T05:02:51.240Z,15.48
2022-12-11T05:05:54.875Z,17.65
2022-12-11T05:11:59.649Z,17.77
2022-12-11T05:15:02.050Z,14.20
2022-12-11T05:18:04.402Z,19.05
2022-12-11T05:21:09.609Z,19.33
2022-12-11T05:24:11.929Z,16.48
2022-12-11T05:27:14.397Z,17.90
2022-12-11T05:30:16.838Z,18.30
2022-12-11T05:33:19.128Z,17.40
2022-12-11T05:36:24.725Z,18.75
2022-12-11T05:39:27.098Z,20.33
2022-12-11T05:42:29.509Z,20.10
2022-12-11T05:45:31.842Z,18.73
2022-12-11T05:48:34.805Z,22.70
2022-12-11T05:51:39.652Z,15.05
2022-12-11T05:54:41.942Z,21.40
2022-12-11T05:57:44.768Z,21.65
2022-12-11T06:00:48.239Z,17.77
2022-12-11T06:03:50.676Z,18.10
2022-12-11T06:06:55.678Z,17.23
2022-12-11T06:09:58.006Z,17.65
2022-12-11T06:13:00.480Z,19.02
2022-12-11T06:16:06.852Z,19.02
2022-12-11T06:19:14.989Z,21.52
2022-12-11T06:22:17.314Z,21.75
2022-12-11T06:25:19.689Z,25.73
2022-12-11T06:28:22.077Z,19.52
2022-12-11T06:31:24.476Z,20.60
2022-12-11T06:34:26.930Z,23.63
2022-12-11T06:37:29.260Z,22.80
2022-12-11T06:40:31.576Z,17.05
2022-12-11T06:43:35.062Z,19.65
2022-12-11T06:46:37.381Z,16.33
2022-12-11T06:49:39.723Z,18.52
2022-12-11T06:52:42.057Z,20.88
2022-12-11T06:55:44.463Z,24.00
2022-12-11T06:58:46.790Z,20.20
2022-12-11T07:01:49.213Z,19.70
2022-12-11T07:04:55.055Z,16.60
2022-12-11T07:07:57.840Z,25.90
2022-12-11T07:11:08.443Z,19.92
2022-12-11T07:14:10.814Z,29.63
2022-12-11T07:17:13.312Z,22.20
2022-12-11T07:20:15.751Z,20.45
2022-12-11T07:23:18.323Z,19.02
2022-12-11T07:26:22.377Z,15.18
2022-12-11T07:29:24.798Z,17.25
2022-12-11T07:32:27.233Z,20.25
2022-12-11T07:35:29.707Z,13.37
2022-12-11T07:38:32.299Z,19.58
2022-12-11T07:41:34.620Z,20.20
2022-12-11T07:44:36.932Z,17.27
2022-12-11T07:47:39.272Z,16.98
2022-12-11T07:50:41.609Z,19.85
2022-12-11T07:53:49.092Z,18.75
2022-12-11T07:56:53.887Z,56.60
2022-12-11T07:59:56.598Z,18.52
2022-12-11T08:02:59.135Z,20.08
2022-12-11T08:06:01.446Z,21.95
2022-12-11T08:09:06.448Z,24.92
2022-12-11T08:12:08.738Z,20.45
2022-12-11T08:15:11.802Z,18.13
2022-12-11T08:18:14.423Z,15.70
2022-12-11T08:21:23.171Z,17.33
2022-12-11T08:24:25.523Z,21.55
2022-12-11T08:27:27.837Z,21.92
2022-12-11T08:30:30.807Z,17.73
2022-12-11T08:33:33.250Z,22.10
2022-12-11T08:36:35.537Z,21.48
2022-12-11T08:39:38.042Z,27.52
2022-12-11T08:42:40.719Z,23.33
2022-12-11T08:45:43.090Z,22.60
2022-12-11T08:48:45.523Z,21.20
2022-12-11T08:51:47.895Z,19.77
2022-12-11T08:54:50.202Z,22.90
2022-12-11T08:57:52.633Z,19.58
2022-12-11T09:00:54.946Z,20.13
2022-12-11T09:03:57.923Z,17.60
2022-12-11T09:07:00.268Z,18.80
2022-12-11T09:10:03.057Z,17.80
2022-12-11T09:13:05.505Z,17.15
2022-12-11T09:16:10.631Z,17.10
2022-12-11T09:19:14.595Z,20.55
2022-12-11T09:22:16.966Z,15.40
2022-12-11T09:25:19.377Z,16.10
2022-12-11T09:28:22.016Z,19.30
2022-12-11T09:31:29.920Z,20.17
2022-12-11T09:34:32.176Z,13.77
2022-12-11T09:37:35.414Z,35.17
2022-12-11T09:40:43.300Z,17.33
2022-12-11T09:43:47.661Z,16.55
2022-12-11T09:46:51.763Z,19.48
2022-12-11T09:49:59.836Z,16.38
2022-12-11T09:53:12.321Z,17.33
2022-12-11T09:56:26.560Z,17.52
2022-12-11T09:59:51.955Z,19.00
2022-12-11T10:03:19.201Z,19.67
2022-12-11T10:06:37.558Z,18.55
2022-12-11T10:10:05.939Z,17.30
2022-12-11T10:13:26.334Z,32.40
2022-12-11T10:16:53.683Z,17.75
2022-12-11T10:19:58.090Z,20.85
2022-12-11T10:23:00.537Z,17.50
2022-12-11T10:26:23.771Z,15.38
2022-12-11T10:29:26.251Z,17.53
2022-12-11T10:32:45.740Z,18.27
2022-12-11T10:35:56.364Z,22.67
2022-12-11T10:38:59.034Z,18.27
2022-12-11T10:42:04.874Z,13.10
2022-12-11T10:45:07.569Z,16.20
2022-12-11T10:48:13.385Z,17.17
2022-12-11T10:51:16.124Z,19.65
2022-12-11T10:54:48.985Z,16.73
2022-12-11T10:57:59.386Z,18.05
2022-12-11T11:01:05.070Z,17.42
2022-12-11T11:04:26.228Z,14.70
2022-12-11T11:07:31.023Z,17.75
2022-12-11T11:10:33.903Z,16.85
2022-12-11T11:13:36.553Z,17.23
2022-12-11T11:16:39.820Z,15.15
2022-12-11T11:19:42.414Z,20.48
2022-12-11T11:22:52.471Z,23.85
2022-12-11T11:25:58.708Z,20.60
2022-12-11T11:29:01.073Z,19.85
2022-12-11T11:32:24.254Z,20.88
2022-12-11T11:35:28.348Z,14.55
2022-12-11T11:38:39.873Z,26.38
2022-12-11T11:42:05.213Z,19.02
2022-12-11T11:45:18.689Z,18.50
2022-12-11T11:48:45.468Z,16.92
2022-12-11T11:51:52.101Z,20.83
2022-12-11T11:55:10.281Z,21.77
2022-12-11T11:58:55.457Z,24.23
2022-12-11T12:01:59.070Z,21.55
2022-12-11T12:08:20.628Z,18.80
2022-12-11T12:11:43.419Z,23.98
2022-12-11T12:15:18.505Z,21.58
2022-12-11T12:18:39.294Z,20.20
2022-12-11T12:21:44.971Z,23.52
2022-12-11T12:25:09.336Z,23.48
2022-12-11T12:28:23.376Z,27.95
2022-12-11T12:31:36.085Z,21.55
2022-12-11T12:35:11.313Z,22.98
2022-12-11T12:38:36.719Z,22.42
2022-12-11T12:42:07.679Z,21.58
2022-12-11T12:45:15.975Z,21.33
2022-12-11T12:48:18.549Z,18.88
2022-12-11T12:51:21.219Z,19.55
2022-12-11T12:54:24.090Z,14.67
2022-12-11T12:57:26.478Z,15.90
2022-12-11T13:00:31.771Z,20.15
2022-12-11T13:03:37.545Z,22.92
2022-12-11T13:06:43.969Z,19.35
2022-12-11T13:09:57.353Z,18.90
2022-12-11T13:13:00.928Z,16.27
2022-12-11T13:19:25.559Z,25.33
2022-12-11T13:22:27.880Z,20.52
2022-12-11T13:25:35.233Z,21.35
2022-12-11T13:28:41.154Z,23.20
2022-12-11T13:31:45.628Z,19.73
2022-12-11T13:34:54.496Z,23.05
2022-12-11T13:38:02.570Z,26.88
2022-12-11T13:41:11.171Z,19.13
2022-12-11T13:44:20.961Z,18.60
2022-12-11T13:47:23.521Z,18.85
2022-12-11T13:50:29.942Z,17.42
2022-12-11T13:53:32.682Z,18.05
2022-12-11T13:56:35.264Z,12.90
2022-12-11T13:59:42.530Z,17.73
2022-12-11T14:02:44.998Z,17.15
2022-12-11T14:05:47.313Z,18.10
2022-12-11T14:08:52.689Z,16.10
2022-12-11T14:11:57.435Z,18.58
2022-12-11T14:15:02.152Z,15.75
2022-12-11T14:18:05.718Z,18.05
2022-12-11T14:24:14.362Z,14.68
2022-12-11T14:27:18.753Z,19.73
2022-12-11T14:30:29.075Z,20.20
2022-12-11T14:33:37.210Z,15.50
2022-12-11T14:36:40.154Z,16.98
2022-12-11T14:39:48.568Z,17.90
2022-12-11T14:43:00.110Z,16.17
2022-12-11T14:46:06.783Z,18.40
2022-12-11T14:49:27.703Z,16.70
2022-12-11T14:52:33.891Z,19.70
2022-12-11T14:55:38.860Z,15.98
2022-12-11T14:58:48.547Z,17.85
2022-12-11T15:02:02.982Z,16.77
2022-12-11T15:05:13.682Z,23.45
2022-12-11T15:08:15.993Z,13.60
2022-12-11T15:11:19.109Z,15.30
2022-12-11T15:14:23.517Z,11.38
2022-12-11T15:17:26.898Z,17.30
2022-12-11T15:20:30.240Z,17.30
2022-12-11T15:23:32.639Z,16.30
2022-12-11T15:26:42.355Z,15.63
2022-12-11T15:29:44.649Z,17.92
2022-12-11T15:32:48.036Z,14.50
2022-12-11T15:35:57.598Z,18.42
2022-12-11T15:38:59.949Z,19.02
2022-12-11T15:42:02.422Z,17.30
2022-12-11T15:45:07.827Z,16.35
2022-12-11T15:48:11.568Z,17.15
2022-12-11T15:54:16.007Z,22.55
2022-12-11T15:57:21.072Z,20.63
2022-12-11T16:00:24.191Z,18.13
2022-12-11T16:03:26.486Z,19.45
2022-12-11T16:06:28.995Z,19.73
2022-12-11T16:09:34.676Z,20.27
2022-12-11T16:12:37.031Z,17.30
2022-12-11T16:15:41.724Z,19.35
2022-12-11T16:18:44.447Z,17.80
2022-12-11T16:21:46.785Z,15.30
2022-12-11T16:24:49.409Z,13.77
2022-12-11T16:27:52.045Z,14.13
2022-12-11T16:30:54.409Z,17.00
2022-12-11T16:33:56.911Z,15.15
2022-12-11T16:36:59.927Z,14.48
2022-12-11T16:40:02.452Z,11.88
2022-12-11T16:43:05.686Z,14.77
2022-12-11T16:46:07.981Z,18.63
2022-12-11T16:49:10.449Z,15.43
2022-12-11T16:52:15.338Z,15.27
2022-12-11T16:55:22.351Z,15.20
2022-12-11T16:58:24.709Z,13.23
2022-12-11T17:01:27.378Z,15.25
2022-12-11T17:04:29.769Z,16.25
2022-12-11T17:07:33.309Z,15.25
2022-12-11T17:10:40.171Z,17.23
2022-12-11T17:13:43.620Z,16.00
2022-12-11T17:16:45.956Z,14.80
2022-12-11T17:19:48.372Z,15.82
2022-12-11T17:22:51.063Z,14.82
2022-12-11T17:25:53.533Z,10.88
2022-12-11T17:28:57.751Z,15.65
2022-12-11T17:32:00.237Z,17.45
2022-12-11T17:35:02.720Z,15.15
2022-12-11T17:38:05.427Z,16.38
2022-12-11T17:41:09.034Z,16.37
2022-12-11T17:44:11.435Z,20.35
2022-12-11T17:47:13.758Z,15.50
2022-12-11T17:50:16.189Z,16.13
2022-12-11T17:53:20.211Z,16.00
2022-12-11T17:56:23.996Z,14.60
2022-12-11T18:02:28.588Z,14.43
2022-12-11T18:05:31.134Z,17.13
2022-12-11T18:08:33.749Z,16.83
2022-12-11T18:11:36.212Z,19.13
2022-12-11T18:14:38.662Z,17.30
2022-12-11T18:17:41.729Z,17.02
2022-12-11T18:20:44.260Z,13.10
2022-12-11T18:23:46.668Z,15.85
2022-12-11T18:26:49.714Z,19.00
2022-12-11T18:29:52.404Z,13.93
2022-12-11T18:32:54.889Z,17.85
2022-12-11T18:35:57.703Z,29.05
2022-12-11T18:39:00.279Z,15.73
2022-12-11T18:42:31.638Z,25.83
2022-12-11T18:45:25.155Z,15.75
2022-12-11T18:48:27.610Z,28.17
2022-12-11T18:51:30.379Z,18.42
2022-12-11T18:54:32.742Z,17.13
2022-12-11T18:57:35.121Z,18.83
2022-12-11T19:00:39.193Z,17.40
2022-12-11T19:03:41.689Z,21.00
2022-12-11T19:06:44.251Z,17.15
2022-12-11T19:09:48.460Z,18.98
2022-12-11T19:12:50.945Z,18.70
2022-12-11T19:15:53.306Z,16.77
2022-12-11T19:18:58.904Z,15.40
2022-12-11T19:22:01.194Z,20.33
2022-12-11T19:25:05.662Z,15.80
2022-12-11T19:28:07.964Z,17.10
2022-12-11T19:31:12.445Z,18.55
2022-12-11T19:34:15.973Z,19.25
2022-12-11T19:37:18.718Z,18.92
2022-12-11T19:40:21.929Z,17.58
2022-12-11T19:43:24.269Z,18.13
2022-12-11T19:46:27.648Z,17.15
2022-12-11T19:49:30.387Z,21.83
2022-12-11T19:52:32.852Z,21.00
2022-12-11T19:55:35.157Z,34.55
2022-12-11T19:58:37.944Z,47.50
2022-12-11T20:01:40.915Z,27.00
2022-12-11T20:04:43.276Z,18.87
2022-12-11T20:07:45.736Z,21.15
2022-12-11T20:10:48.467Z,26.70
2022-12-11T20:13:51.636Z,24.15
2022-12-11T20:17:12.089Z,19.92
2022-12-11T20:20:15.627Z,31.75
2022-12-11T20:23:18.159Z,38.03
2022-12-11T20:26:23.809Z,26.00
2022-12-11T20:29:26.583Z,51.38
2022-12-11T20:32:29.167Z,49.45
2022-12-11T20:35:32.071Z,24.52
2022-12-11T20:38:34.756Z,29.93
2022-12-11T20:41:37.271Z,64.43
2022-12-11T20:44:42.827Z,63.47
2022-12-11T20:47:50.121Z,60.58
2022-12-11T20:50:52.819Z,22.60
2022-12-11T20:53:59.770Z,22.92
2022-12-11T20:57:02.174Z,64.47
2022-12-11T21:00:06.734Z,52.97
2022-12-11T21:03:09.193Z,36.83
2022-12-11T21:06:39.027Z,29.88
2022-12-11T21:09:41.975Z,42.92
2022-12-11T21:12:44.379Z,118.97
2022-12-11T21:15:46.650Z,72.10
2022-12-11T21:18:49.372Z,48.72
2022-12-11T21:21:52.139Z,39.88
2022-12-11T21:24:54.638Z,85.47
2022-12-11T21:27:56.957Z,102.95
2022-12-11T21:31:04.996Z,43.85
2022-12-11T21:34:07.572Z,39.08
2022-12-11T21:37:10.024Z,30.08
2022-12-11T21:40:12.753Z,32.70
2022-12-11T21:43:15.380Z,28.58
2022-12-11T21:46:20.721Z,33.95
2022-12-11T21:49:23.207Z,28.35
2022-12-11T21:52:25.614Z,21.92
2022-12-11T21:55:28.512Z,17.67
2022-12-11T21:58:30.823Z,19.33
2022-12-11T22:01:38.652Z,18.92
2022-12-11T22:04:42.191Z,23.75
2022-12-11T22:07:44.597Z,20.95
2022-12-11T22:10:46.974Z,21.25
2022-12-11T22:13:49.430Z,19.80
2022-12-11T22:16:51.767Z,20.02
2022-12-11T22:19:54.104Z,18.77
2022-12-11T22:22:56.767Z,16.83
2022-12-11T22:25:59.397Z,15.75
2022-12-11T22:29:01.763Z,16.70
2022-12-11T22:32:05.004Z,15.68
2022-12-11T22:35:07.841Z,17.20
2022-12-11T22:38:10.169Z,15.77
2022-12-11T22:41:20.455Z,19.58
2022-12-11T22:44:24.437Z,20.30
2022-12-11T22:47:26.817Z,17.80
2022-12-11T22:50:29.175Z,18.55
2022-12-11T22:53:31.602Z,18.80
2022-12-11T22:56:33.907Z,16.70
2022-12-11T22:59:37.165Z,20.10
2022-12-11T23:02:39.611Z,17.98
2022-12-11T23:05:43.332Z,24.35
2022-12-11T23:08:45.958Z,23.42
2022-12-11T23:11:48.288Z,25.05
2022-12-11T23:14:51.511Z,25.25
2022-12-11T23:17:53.876Z,24.92
2022-12-11T23:20:56.269Z,26.58
2022-12-11T23:23:59.282Z,19.33
2022-12-11T23:27:01.938Z,19.40
2022-12-11T23:30:05.009Z,29.10
2022-12-11T23:33:07.354Z,17.48
2022-12-11T23:36:10.070Z,25.42
2022-12-11T23:39:12.569Z,28.38
2022-12-11T23:42:16.665Z,26.45
2022-12-11T23:45:21.213Z,31.02
2022-12-11T23:48:24.004Z,27.63
2022-12-11T23:51:26.469Z,29.77
2022-12-11T23:54:29.679Z,30.05
2022-12-11T23:57:32.078Z,30.05
